METAR Data
IDs: Format: Raw Decoded Include TAF

Data at: 1211 UTC 16 Feb 2019

PFWS 161204Z AUTO 20009KT 4SM BR BKN005 BKN010 OVC014 00/00 A3001 RMK AO2 PWINO FZRANO $
PFWS 161148Z AUTO 21008KT 2 1/2SM BR SCT005 OVC010 00/00 A3001 RMK AO2 VIS 1 1/2V3 CIG 008V013 P0002 PWINO FZRANO $
PFWS 161056Z AUTO 20012KT 3SM BR FEW005 OVC014 01/00 A2999 RMK AO2 SLP161 P0002 T00060000 PWINO FZRANO $
PFWS 161036Z AUTO 20011KT 3SM BR FEW005 OVC014 01/01 A2998 RMK AO2 P0002 PWINO FZRANO $
PFWS 160956Z AUTO 19013KT 9SM FEW010 BKN023 OVC029 01/01 A2995 RMK AO2 SLP149 P0002 T00110006 PWINO FZRANO $
PFWS 160905Z AUTO 17015G19KT 9SM BKN029 OVC036 01/01 A2993 RMK AO2 PWINO FZRANO $
PFWS 160856Z AUTO 17014G19KT 10SM OVC034 01/01 A2993 RMK AO2 SLP141 P0003 60011 T00110011 400111117 53009 PWINO FZRANO $
PFWS 160806Z AUTO 16014KT 10SM SCT017 OVC032 01/01 A2992 RMK AO2 PWINO FZRANO
PFWS 160756Z AUTO 16012KT 10SM SCT017 BKN022 OVC035 01/01 A2991 RMK AO2 RAE38 SLP135 P0004 T00110011 FZRANO
PFWS 160711Z AUTO 15012KT 10SM RA FEW024 BKN030 OVC035 01/01 A2991 RMK AO2 P0001 FZRANO
PFWS 160704Z AUTO 15011KT 10SM RA FEW017 BKN026 OVC032 01/01 A2991 RMK AO2 P0000 FZRANO
PFWS 160610Z AUTO 14008KT 10SM UP OVC028 01/00 A2990 RMK AO2 P0001 FZRANO
PFWS 160556Z AUTO 13005KT 9SM UP OVC030 00/M01 A2990 RMK AO2 SLP132 P0002 60002 T00001011 10006 21011 53007 FZRANO
PFWS 160456Z AUTO 11006KT 10SM UP OVC034 M01/M02 A2989 RMK AO2 UPB22 SLP127 P0000 T10111017 FZRANO
PFWS 160418Z AUTO 11007KT 9SM FEW024 BKN030 OVC034 M01/M03 A2988 RMK AO2 PWINO FZRANO
PFWS 160356Z AUTO 12006KT 10SM FEW020 BKN040 OVC060 00/M05 A2989 RMK AO2 SLP127 T00001050 PWINO FZRANO
PFWS 160256Z AUTO 10006KT 10SM OVC038 00/M06 A2988 RMK AO2 SLP125 T00001056 58010 PWINO FZRANO $
PFWS 160156Z AUTO 10005KT 10SM FEW038 BKN047 OVC060 01/M07 A2990 RMK AO2 SLP130 T00061067 PWINO FZRANO
PFWS 152356Z AUTO 06008KT 10SM OVC090 M01/M04 A2991 RMK AO2 SLP135 T10111044 11011 21117 58013 PWINO FZRANO
PFWS 152256Z AUTO 07010KT 10SM CLR M03/M05 A2993 RMK AO2 SLP141 T10281050 PWINO FZRANO
PFWS 152156Z AUTO 08005KT 10SM SCT120 M04/M06 A2995 RMK AO2 SLP149 T10441061 PWINO FZRANO
PFWS 152056Z AUTO 06008KT 10SM CLR M07/M08 A2995 RMK AO2 SLP148 T10671083 58022 PWINO FZRANO
PFWS 151856Z AUTO 05004KT 10SM CLR M11/M13 A3000 RMK AO2 SLP166 T11111128 PWINO FZRANO
PFWS 151756Z AUTO 07005KT 10SM CLR M12/M13 A3002 RMK AO2 SLP171 T11171133 11094 21117 55010 PWINO FZRANO
PFWS 151656Z AUTO 04005KT 10SM CLR M11/M13 A3001 RMK AO2 SLP170 T11061128 PWINO FZRANO $
PFWS 151556Z AUTO 05003KT 10SM CLR M11/M13 A3003 RMK AO2 SLP175 T11061133 FZRANO
PFWS 151456Z AUTO 05006KT 10SM CLR M11/M12 A3005 RMK AO2 SLP180 T11111122 57018 PWINO FZRANO
PFWS 151356Z AUTO 05006KT 10SM CLR M11/M13 A3006 RMK AO2 SLP187 T11111128 PWINO FZRANO $
PFWS 151256Z AUTO 04007KT 10SM CLR M11/M12 A3008 RMK AO2 SLP192 T11061122 FZRANO
PFWS 151156Z AUTO 14005KT 10SM CLR M11/M12 A3010 RMK AO2 SLP198 T11061122 11067 21106 53002 PWINO FZRANO
PFWS 151056Z AUTO 06004KT 10SM CLR M10/M12 A3009 RMK AO2 SLP194 T11001122 PWINO FZRANO
PFWS 150956Z AUTO 06005KT 10SM CLR M10/M12 A3009 RMK AO2 SLP197 T11001117 PWINO FZRANO
PFWS 150912Z AUTO 06004KT 10SM SCT021 M08/M11 A3009 RMK AO2 PWINO FZRANO
PFWS 150856Z AUTO 04006KT 10SM BKN021 M08/M11 A3009 RMK AO2 SLP196 T10831111 410501133 53008 PWINO FZRANO
PFWS 150656Z AUTO 04004KT 10SM OVC027 M07/M09 A3007 RMK AO2 SLP190 T10671094 PWINO FZRANO
PFWS 150625Z AUTO 04004KT 10SM OVC029 M07/M10 A3007 RMK AO2 PWINO FZRANO
PFWS 150556Z AUTO 03005KT 10SM OVC031 M07/M10 A3007 RMK AO2 SLP188 T10671100 11050 21067 50006 PWINO FZRANO
PFWS 150456Z AUTO 02004KT 10SM OVC035 M06/M09 A3007 RMK AO2 SLP189 T10561094 PWINO FZRANO
PFWS 150356Z AUTO 06005KT 10SM SCT041 BKN050 OVC065 M06/M09 A3006 RMK AO2 SLP186 T10561094 PWINO FZRANO
PFWS 150256Z AUTO 07007KT 10SM BKN050 OVC070 M05/M09 A3005 RMK AO2 SLP182 T10501094 56009 PWINO FZRANO
PFWS 150156Z AUTO 06007KT 10SM OVC060 M05/M09 A3005 RMK AO2 SLP182 T10501094 PWINO FZRANO
PFWS 150056Z AUTO 05006KT 10SM BKN065 M05/M10 A3006 RMK AO2 SLP184 T10501100 PWINO FZRANO